Alabama Port, Alabama
Current Conditions -  °F | °C
As of 1:53 PM on Sunday 23 Nov 2014 (Local Time) from KBFM Reporting Station
Broken Clouds Broken Clouds  
Wind Chill: 67°   Ceiling: 2800
Heat Index: 67°   Visibility: 10mi
Dew Point: 61°   Wind: 10mph
Humidity: 81%   Direction: 230°SW
Pressure: 29.69"   Gusts: 22mph
Location:  30.4032°N, 88.1801°W
Report Text: KBFM 231953Z 23009G19KT 10SM BKN028 19/16 A2969 RMK AO2 SLP053 T01940161
Loading
Personal Weather Stations






























Interactive Weather Map New forecast layout! Learn more

10-Day Weather Forecast

Advertisements
Track Severe Weather on mobile